sensor_id;sensor_type;location;lat;lon;timestamp;pressure;altitude;pressure_sealevel;temperature;humidity
53940;BME280;39850;43.324;21.916;2023-06-14T00:02:29;989.0;;;15.2;94.0
53940;BME280;39850;43.324;21.916;2023-06-14T00:07:07;989.0;;;15.3;94.0
53940;BME280;39850;43.324;21.916;2023-06-14T00:11:44;989.0;;;15.3;94.0
53940;BME280;39850;43.324;21.916;2023-06-14T00:16:21;989.0;;;15.5;94.0
53940;BME280;39850;43.324;21.916;2023-06-14T00:20:58;989.0;;;15.5;94.0
53940;BME280;39850;43.324;21.916;2023-06-14T00:57:59;988.0;;;14.4;94.0
53940;BME280;39850;43.324;21.916;2023-06-14T01:02:38;988.0;;;14.4;94.0
53940;BME280;39850;43.324;21.916;2023-06-14T01:08:11;988.0;;;14.4;95.0
53940;BME280;39850;43.324;21.916;2023-06-14T01:13:21;988.0;;;14.4;95.0
53940;BME280;39850;43.324;21.916;2023-06-14T01:18:03;988.0;;;14.4;95.0
53940;BME280;39850;43.324;21.916;2023-06-14T01:22:53;988.0;;;14.4;95.0
53940;BME280;39850;43.324;21.916;2023-06-14T01:27:31;988.0;;;14.4;95.0
53940;BME280;39850;43.324;21.916;2023-06-14T01:32:10;988.0;;;14.4;95.0
53940;BME280;39850;43.324;21.916;2023-06-14T01:36:54;988.0;;;14.5;96.0
53940;BME280;39850;43.324;21.916;2023-06-14T01:41:36;988.0;;;14.5;96.0
53940;BME280;39850;43.324;21.916;2023-06-14T02:18:41;988.0;;;14.4;95.0
53940;BME280;39850;43.324;21.916;2023-06-14T02:23:18;988.0;;;14.4;95.0
53940;BME280;39850;43.324;21.916;2023-06-14T02:27:55;988.0;;;14.4;95.0
53940;BME280;39850;43.324;21.916;2023-06-14T02:32:32;988.0;;;14.4;95.0
53940;BME280;39850;43.324;21.916;2023-06-14T02:37:08;988.0;;;14.5;96.0
53940;BME280;39850;43.324;21.916;2023-06-14T02:41:45;988.0;;;14.5;96.0
53940;BME280;39850;43.324;21.916;2023-06-14T02:46:21;988.0;;;14.6;96.0
53940;BME280;39850;43.324;21.916;2023-06-14T02:50:58;988.0;;;14.6;96.0
53940;BME280;39850;43.324;21.916;2023-06-14T02:55:35;988.0;;;14.6;96.0
53940;BME280;39850;43.324;21.916;2023-06-14T03:00:14;988.0;;;14.6;96.0
53940;BME280;39850;43.324;21.916;2023-06-14T03:04:50;988.0;;;14.6;96.0
53940;BME280;39850;43.324;21.916;2023-06-14T03:37:05;989.0;;;14.4;95.0
53940;BME280;39850;43.324;21.916;2023-06-14T03:41:42;989.0;;;14.4;95.0
53940;BME280;39850;43.324;21.916;2023-06-14T03:46:18;989.0;;;14.4;95.0
53940;BME280;39850;43.324;21.916;2023-06-14T03:50:55;989.0;;;14.4;95.0
53940;BME280;39850;43.324;21.916;2023-06-14T03:55:32;989.0;;;14.4;95.0
53940;BME280;39850;43.324;21.916;2023-06-14T04:00:14;989.0;;;14.4;94.0
53940;BME280;39850;43.324;21.916;2023-06-14T04:04:51;989.0;;;14.4;94.0
53940;BME280;39850;43.324;21.916;2023-06-14T04:09:27;989.0;;;14.4;94.0
53940;BME280;39850;43.324;21.916;2023-06-14T04:14:05;989.0;;;14.4;94.0
53940;BME280;39850;43.324;21.916;2023-06-14T04:18:42;989.0;;;14.4;94.0
53940;BME280;39850;43.324;21.916;2023-06-14T04:23:19;989.0;;;14.4;94.0
53940;BME280;39850;43.324;21.916;2023-06-14T05:00:15;989.0;;;16.4;91.0
53940;BME280;39850;43.324;21.916;2023-06-14T05:04:52;989.0;;;16.4;91.0
53940;BME280;39850;43.324;21.916;2023-06-14T05:09:28;989.0;;;16.4;91.0
53940;BME280;39850;43.324;21.916;2023-06-14T05:14:05;989.0;;;16.4;91.0
53940;BME280;39850;43.324;21.916;2023-06-14T05:18:42;989.0;;;16.3;90.0
53940;BME280;39850;43.324;21.916;2023-06-14T05:23:18;989.0;;;16.3;90.0
53940;BME280;39850;43.324;21.916;2023-06-14T05:27:55;989.0;;;16.2;88.0
53940;BME280;39850;43.324;21.916;2023-06-14T05:32:31;989.0;;;16.2;88.0
53940;BME280;39850;43.324;21.916;2023-06-14T05:37:08;989.0;;;16.2;88.0
53940;BME280;39850;43.324;21.916;2023-06-14T05:41:44;989.0;;;16.2;88.0
53940;BME280;39850;43.324;21.916;2023-06-14T06:18:44;989.0;;;21.8;69.0
53940;BME280;39850;43.324;21.916;2023-06-14T06:23:20;989.0;;;21.8;69.0
53940;BME280;39850;43.324;21.916;2023-06-14T06:27:58;989.0;;;22.2;68.0
53940;BME280;39850;43.324;21.916;2023-06-14T06:32:34;989.0;;;22.2;68.0
53940;BME280;39850;43.324;21.916;2023-06-14T06:37:13;989.0;;;22.6;66.0
53940;BME280;39850;43.324;21.916;2023-06-14T06:41:49;989.0;;;22.6;66.0
53940;BME280;39850;43.324;21.916;2023-06-14T06:46:26;989.0;;;22.6;66.0
53940;BME280;39850;43.324;21.916;2023-06-14T06:51:03;989.0;;;23.1;64.0
53940;BME280;39850;43.324;21.916;2023-06-14T06:55:39;989.0;;;23.1;64.0
53940;BME280;39850;43.324;21.916;2023-06-14T07:00:20;989.0;;;23.6;61.0
53940;BME280;39850;43.324;21.916;2023-06-14T07:04:57;989.0;;;23.6;61.0
53940;BME280;39850;43.324;21.916;2023-06-14T07:37:15;989.0;;;21.8;68.0
53940;BME280;39850;43.324;21.916;2023-06-14T07:41:52;989.0;;;21.8;68.0
53940;BME280;39850;43.324;21.916;2023-06-14T07:46:28;989.0;;;21.8;68.0
53940;BME280;39850;43.324;21.916;2023-06-14T07:51:05;989.0;;;21.8;68.0
53940;BME280;39850;43.324;21.916;2023-06-14T07:55:42;989.0;;;21.8;68.0
53940;BME280;39850;43.324;21.916;2023-06-14T08:00:21;989.0;;;21.8;68.0
53940;BME280;39850;43.324;21.916;2023-06-14T08:04:58;989.0;;;21.8;68.0
53940;BME280;39850;43.324;21.916;2023-06-14T08:09:36;989.0;;;21.9;68.0
53940;BME280;39850;43.324;21.916;2023-06-14T08:14:12;989.0;;;21.9;68.0
53940;BME280;39850;43.324;21.916;2023-06-14T08:18:49;989.0;;;22.0;68.0
53940;BME280;39850;43.324;21.916;2023-06-14T08:23:26;989.0;;;22.0;68.0
53940;BME280;39850;43.324;21.916;2023-06-14T09:00:33;989.0;;;22.6;65.0
53940;BME280;39850;43.324;21.916;2023-06-14T09:05:11;989.0;;;22.6;65.0
53940;BME280;39850;43.324;21.916;2023-06-14T09:09:48;989.0;;;22.6;65.0
53940;BME280;39850;43.324;21.916;2023-06-14T09:14:25;989.0;;;22.6;65.0
53940;BME280;39850;43.324;21.916;2023-06-14T09:19:02;989.0;;;22.6;65.0
53940;BME280;39850;43.324;21.916;2023-06-14T09:23:45;989.0;;;22.6;65.0
53940;BME280;39850;43.324;21.916;2023-06-14T09:28:28;989.0;;;22.8;65.0
53940;BME280;39850;43.324;21.916;2023-06-14T09:33:05;989.0;;;22.8;65.0
53940;BME280;39850;43.324;21.916;2023-06-14T09:37:42;989.0;;;22.9;65.0
53940;BME280;39850;43.324;21.916;2023-06-14T09:42:20;989.0;;;22.9;65.0
53940;BME280;39850;43.324;21.916;2023-06-14T09:46:57;989.0;;;22.9;65.0
53940;BME280;39850;43.324;21.916;2023-06-14T10:21:23;988.0;;;24.6;61.0
53940;BME280;39850;43.324;21.916;2023-06-14T10:26:02;988.0;;;24.6;61.0
53940;BME280;39850;43.324;21.916;2023-06-14T10:30:39;988.0;;;24.6;60.0
53940;BME280;39850;43.324;21.916;2023-06-14T10:35:17;988.0;;;24.6;60.0
53940;BME280;39850;43.324;21.916;2023-06-14T10:39:54;988.0;;;24.6;60.0
53940;BME280;39850;43.324;21.916;2023-06-14T10:44:45;988.0;;;24.6;60.0
53940;BME280;39850;43.324;21.916;2023-06-14T10:49:45;988.0;;;24.6;59.0
53940;BME280;39850;43.324;21.916;2023-06-14T10:54:27;988.0;;;24.6;59.0
53940;BME280;39850;43.324;21.916;2023-06-14T10:59:04;988.0;;;24.6;58.0
53940;BME280;39850;43.324;21.916;2023-06-14T11:03:52;988.0;;;24.6;58.0
53940;BME280;39850;43.324;21.916;2023-06-14T11:47:51;987.0;;;24.4;56.0
53940;BME280;39850;43.324;21.916;2023-06-14T11:52:29;987.0;;;24.4;56.0
53940;BME280;39850;43.324;21.916;2023-06-14T11:57:08;987.0;;;24.4;56.0
53940;BME280;39850;43.324;21.916;2023-06-14T12:01:44;987.0;;;24.5;56.0
53940;BME280;39850;43.324;21.916;2023-06-14T12:06:31;987.0;;;24.5;56.0
53940;BME280;39850;43.324;21.916;2023-06-14T12:11:15;987.0;;;24.5;56.0
53940;BME280;39850;43.324;21.916;2023-06-14T12:15:56;987.0;;;24.5;56.0
53940;BME280;39850;43.324;21.916;2023-06-14T12:20:33;987.0;;;24.6;56.0
53940;BME280;39850;43.324;21.916;2023-06-14T12:25:30;987.0;;;24.6;56.0
53940;BME280;39850;43.324;21.916;2023-06-14T13:02:30;987.0;;;22.7;65.0
53940;BME280;39850;43.324;21.916;2023-06-14T13:07:06;987.0;;;22.7;65.0
53940;BME280;39850;43.324;21.916;2023-06-14T13:11:43;987.0;;;22.6;65.0
53940;BME280;39850;43.324;21.916;2023-06-14T13:16:20;987.0;;;22.6;65.0
53940;BME280;39850;43.324;21.916;2023-06-14T13:20:56;987.0;;;22.6;65.0
53940;BME280;39850;43.324;21.916;2023-06-14T13:25:34;987.0;;;22.6;65.0
53940;BME280;39850;43.324;21.916;2023-06-14T13:30:13;987.0;;;22.6;66.0
53940;BME280;39850;43.324;21.916;2023-06-14T13:34:50;987.0;;;22.6;66.0
53940;BME280;39850;43.324;21.916;2023-06-14T13:39:27;987.0;;;22.6;66.0
53940;BME280;39850;43.324;21.916;2023-06-14T13:44:04;987.0;;;22.6;66.0
53940;BME280;39850;43.324;21.916;2023-06-14T14:30:14;987.0;;;20.1;78.0
53940;BME280;39850;43.324;21.916;2023-06-14T14:34:51;987.0;;;20.1;78.0
53940;BME280;39850;43.324;21.916;2023-06-14T14:39:28;987.0;;;19.5;82.0
53940;BME280;39850;43.324;21.916;2023-06-14T14:44:06;987.0;;;19.5;82.0
53940;BME280;39850;43.324;21.916;2023-06-14T14:48:43;987.0;;;19.5;82.0
53940;BME280;39850;43.324;21.916;2023-06-14T14:53:19;987.0;;;19.5;82.0
53940;BME280;39850;43.324;21.916;2023-06-14T14:57:56;987.0;;;19.5;82.0
53940;BME280;39850;43.324;21.916;2023-06-14T15:02:33;987.0;;;18.9;86.0
53940;BME280;39850;43.324;21.916;2023-06-14T15:07:10;987.0;;;18.9;86.0
53940;BME280;39850;43.324;21.916;2023-06-14T15:39:29;988.0;;;20.9;81.0
53940;BME280;39850;43.324;21.916;2023-06-14T15:44:05;988.0;;;20.9;81.0
53940;BME280;39850;43.324;21.916;2023-06-14T15:48:47;988.0;;;20.9;81.0
53940;BME280;39850;43.324;21.916;2023-06-14T15:53:24;988.0;;;20.9;81.0
53940;BME280;39850;43.324;21.916;2023-06-14T15:58:00;988.0;;;20.9;81.0
53940;BME280;39850;43.324;21.916;2023-06-14T16:02:38;988.0;;;20.9;81.0
53940;BME280;39850;43.324;21.916;2023-06-14T16:07:14;988.0;;;20.9;81.0
53940;BME280;39850;43.324;21.916;2023-06-14T16:11:51;988.0;;;20.9;81.0
53940;BME280;39850;43.324;21.916;2023-06-14T16:16:28;988.0;;;20.9;81.0
53940;BME280;39850;43.324;21.916;2023-06-14T16:21:05;988.0;;;20.9;81.0
53940;BME280;39850;43.324;21.916;2023-06-14T16:25:41;988.0;;;20.9;81.0
53940;BME280;39850;43.324;21.916;2023-06-14T17:02:34;988.0;;;20.0;82.0
53940;BME280;39850;43.324;21.916;2023-06-14T17:07:10;988.0;;;20.0;82.0
53940;BME280;39850;43.324;21.916;2023-06-14T17:11:47;988.0;;;20.0;82.0
53940;BME280;39850;43.324;21.916;2023-06-14T17:16:23;988.0;;;20.0;82.0
53940;BME280;39850;43.324;21.916;2023-06-14T17:20:59;988.0;;;20.0;82.0
53940;BME280;39850;43.324;21.916;2023-06-14T17:25:37;988.0;;;20.0;82.0
53940;BME280;39850;43.324;21.916;2023-06-14T17:30:15;988.0;;;19.4;83.0
53940;BME280;39850;43.324;21.916;2023-06-14T17:34:52;988.0;;;19.4;83.0
53940;BME280;39850;43.324;21.916;2023-06-14T17:39:28;988.0;;;18.9;84.0
53940;BME280;39850;43.324;21.916;2023-06-14T17:44:05;988.0;;;18.9;84.0
53940;BME280;39850;43.324;21.916;2023-06-14T17:48:41;988.0;;;18.9;84.0
53940;BME280;39850;43.324;21.916;2023-06-14T18:20:58;989.0;;;19.1;86.0
53940;BME280;39850;43.324;21.916;2023-06-14T18:25:34;989.0;;;19.1;86.0
53940;BME280;39850;43.324;21.916;2023-06-14T18:30:14;989.0;;;19.1;87.0
53940;BME280;39850;43.324;21.916;2023-06-14T18:34:50;989.0;;;19.1;87.0
53940;BME280;39850;43.324;21.916;2023-06-14T18:39:27;989.0;;;19.1;87.0
53940;BME280;39850;43.324;21.916;2023-06-14T18:44:04;989.0;;;19.1;87.0
53940;BME280;39850;43.324;21.916;2023-06-14T18:48:40;989.0;;;19.1;87.0
53940;BME280;39850;43.324;21.916;2023-06-14T18:53:17;989.0;;;19.1;87.0
53940;BME280;39850;43.324;21.916;2023-06-14T18:57:53;989.0;;;19.1;87.0
53940;BME280;39850;43.324;21.916;2023-06-14T19:53:11;989.0;;;19.0;92.0
53940;BME280;39850;43.324;21.916;2023-06-14T19:57:48;989.0;;;19.0;92.0
53940;BME280;39850;43.324;21.916;2023-06-14T20:02:24;989.0;;;19.0;92.0
53940;BME280;39850;43.324;21.916;2023-06-14T20:07:01;989.0;;;19.0;92.0
53940;BME280;39850;43.324;21.916;2023-06-14T20:11:38;989.0;;;19.0;92.0
53940;BME280;39850;43.324;21.916;2023-06-14T20:16:16;989.0;;;19.0;92.0
53940;BME280;39850;43.324;21.916;2023-06-14T21:02:27;989.0;;;18.0;94.0
53940;BME280;39850;43.324;21.916;2023-06-14T21:07:05;989.0;;;18.0;94.0
53940;BME280;39850;43.324;21.916;2023-06-14T21:11:42;989.0;;;18.0;94.0
53940;BME280;39850;43.324;21.916;2023-06-14T21:16:18;989.0;;;18.0;94.0
53940;BME280;39850;43.324;21.916;2023-06-14T21:20:55;989.0;;;18.0;94.0
53940;BME280;39850;43.324;21.916;2023-06-14T21:25:31;989.0;;;18.0;94.0
53940;BME280;39850;43.324;21.916;2023-06-14T21:30:15;989.0;;;18.0;95.0
53940;BME280;39850;43.324;21.916;2023-06-14T21:34:51;989.0;;;18.0;95.0
53940;BME280;39850;43.324;21.916;2023-06-14T21:39:28;989.0;;;18.0;95.0
53940;BME280;39850;43.324;21.916;2023-06-14T22:30:16;989.0;;;18.1;95.0
53940;BME280;39850;43.324;21.916;2023-06-14T22:34:53;989.0;;;18.1;95.0
53940;BME280;39850;43.324;21.916;2023-06-14T22:39:29;989.0;;;18.1;95.0
53940;BME280;39850;43.324;21.916;2023-06-14T22:44:07;989.0;;;18.1;95.0
53940;BME280;39850;43.324;21.916;2023-06-14T22:48:43;989.0;;;18.1;95.0
53940;BME280;39850;43.324;21.916;2023-06-14T22:53:19;989.0;;;18.1;95.0
53940;BME280;39850;43.324;21.916;2023-06-14T22:57:56;989.0;;;18.1;95.0
53940;BME280;39850;43.324;21.916;2023-06-14T23:44:04;989.0;;;18.2;98.0
53940;BME280;39850;43.324;21.916;2023-06-14T23:48:41;989.0;;;18.2;98.0
53940;BME280;39850;43.324;21.916;2023-06-14T23:53:17;989.0;;;18.0;98.0
53940;BME280;39850;43.324;21.916;2023-06-14T23:57:54;989.0;;;18.0;98.0
